Time;durP1;ratioP1;P1;durP2;ratioP2;P2;SDS_P1;SDS_P2;PMS_P1;PMS_P2;Temp;Humidity;BMP_temperature;BMP_pressure;BME280_temperature;BME280_humidity;BME280_pressure;Samples;Min_cycle;Max_cycle;Signal;HPM_P1;HPM_P2
2021/09/21 05:06:50;;;;;;;25.82;18.25;;;;;;;5.20;100.00;98223.45;1871399;76;28385;-60
2021/09/21 05:09:19;;;;;;;17.73;13.00;;;;;;;5.16;100.00;98218.89;1824724;78;20975;-60
2021/09/21 05:11:47;;;;;;;12.75;9.68;;;;;;;5.18;100.00;98214.12;1827766;78;20829;-61
2021/09/21 05:14:16;;;;;;;11.22;8.28;;;;;;;5.23;100.00;98222.92;1815042;78;20916;-61
2021/09/21 05:16:44;;;;;;;11.63;7.97;;;;;;;5.32;100.00;98224.08;1795226;79;20932;-61
2021/09/21 05:19:11;;;;;;;9.95;7.72;;;;;;;5.39;99.96;98213.27;1795254;80;21300;-60
2021/09/21 05:21:40;;;;;;;8.75;7.80;;;;;;;5.48;99.45;98212.57;1795294;79;21339;-61
2021/09/21 05:24:09;;;;;;;9.80;7.72;;;;;;;5.56;99.35;98215.83;1795299;79;21900;-61
2021/09/21 05:26:37;;;;;;;8.95;7.65;;;;;;;5.59;98.95;98220.61;1795120;79;20915;-61
2021/09/21 05:29:04;;;;;;;10.78;7.90;;;;;;;5.65;98.74;98216.96;1795336;80;20864;-60
2021/09/21 05:31:32;;;;;;;10.15;7.25;;;;;;;5.68;98.59;98229.72;1795253;80;20895;-60
2021/09/21 05:34:00;;;;;;;10.32;7.75;;;;;;;5.72;98.11;98225.52;1795303;80;21413;-60
2021/09/21 05:36:27;;;;;;;9.75;7.60;;;;;;;5.75;97.92;98225.80;1823523;78;21668;-60
2021/09/21 05:38:55;;;;;;;10.70;7.60;;;;;;;5.79;97.58;98226.92;1827739;78;20915;-60
2021/09/21 05:41:21;;;;;;;10.48;7.42;;;;;;;5.80;97.37;98221.05;1827784;78;20931;-60
2021/09/21 05:43:50;;;;;;;8.25;7.42;;;;;;;5.81;97.10;98231.97;1827769;78;21445;-60
2021/09/21 05:46:16;;;;;;;9.68;7.50;;;;;;;5.80;96.95;98233.02;1827776;78;20833;-59
2021/09/21 05:48:43;;;;;;;10.20;7.53;;;;;;;5.82;96.94;98233.56;1827775;78;21111;-62
2021/09/21 05:51:10;;;;;;;7.95;7.15;;;;;;;5.86;96.83;98236.84;1827706;78;20944;-62
2021/09/21 05:53:37;;;;;;;8.63;7.53;;;;;;;5.90;96.24;98237.12;1827763;78;20829;-60
2021/09/21 05:56:06;;;;;;;8.63;7.72;;;;;;;5.92;95.99;98230.50;1827723;78;21418;-61
2021/09/21 05:58:33;;;;;;;10.10;8.68;;;;;;;5.95;95.85;98234.52;1736267;80;20902;-61
2021/09/21 06:01:02;;;;;;;10.75;8.40;;;;;;;5.93;95.53;98227.32;1786978;79;21586;-61
2021/09/21 06:03:28;;;;;;;10.18;6.90;;;;;;;5.96;95.87;98233.44;1753071;81;20892;-60
2021/09/21 06:05:55;;;;;;;9.18;7.50;;;;;;;6.04;95.96;98234.31;1771436;81;20973;-60
2021/09/21 06:08:24;;;;;;;12.50;8.35;;;;;;;6.08;95.60;98234.88;1768684;81;20965;-59
2021/09/21 06:10:50;;;;;;;11.28;8.45;;;;;;;6.11;95.63;98237.55;1768690;81;20996;-60
2021/09/21 06:13:17;;;;;;;11.88;7.83;;;;;;;6.15;95.43;98231.47;1768665;81;21125;-60
2021/09/21 06:15:47;;;;;;;8.45;7.25;;;;;;;6.17;95.04;98232.56;1768610;81;21479;-60
2021/09/21 06:18:16;;;;;;;8.75;7.00;;;;;;;6.19;94.85;98237.09;1768111;81;21529;-59
2021/09/21 06:20:43;;;;;;;9.88;8.73;;;;;;;6.18;94.35;98236.28;1768274;81;20976;-61
2021/09/21 06:23:11;;;;;;;10.25;7.97;;;;;;;6.17;94.12;98231.23;1768063;81;20933;-60
2021/09/21 06:25:39;;;;;;;10.95;8.30;;;;;;;6.18;94.10;98241.60;1765596;79;21080;-65
2021/09/21 06:28:06;;;;;;;8.78;7.22;;;;;;;6.23;94.04;98234.19;1764222;80;21501;-61
2021/09/21 06:30:33;;;;;;;10.55;8.05;;;;;;;6.27;93.55;98239.25;1754074;79;21017;-60
2021/09/21 06:33:00;;;;;;;10.70;8.28;;;;;;;6.31;93.65;98241.70;1752572;79;20863;-61
2021/09/21 06:35:28;;;;;;;8.93;8.00;;;;;;;6.32;93.37;98239.29;1761938;80;20990;-61
2021/09/21 06:37:56;;;;;;;9.15;8.25;;;;;;;6.34;93.12;98235.84;1753155;81;21928;-61
2021/09/21 06:40:22;;;;;;;12.20;7.58;;;;;;;6.32;92.91;98249.93;1765911;81;20958;-60
2021/09/21 06:42:49;;;;;;;9.05;7.85;;;;;;;6.32;92.84;98254.45;1766346;81;20969;-63
2021/09/21 06:45:17;;;;;;;9.75;7.97;;;;;;;6.32;92.85;98249.93;1765164;79;20934;-61
2021/09/21 06:47:44;;;;;;;12.05;9.03;;;;;;;6.33;92.48;98251.55;1753088;81;21488;-60
2021/09/21 06:50:13;;;;;;;9.63;8.43;;;;;;;6.29;92.27;98253.09;1736581;82;21429;-60
2021/09/21 06:52:40;;;;;;;10.13;7.75;;;;;;;6.27;92.37;98255.73;1735415;82;21058;-62
2021/09/21 06:55:10;;;;;;;9.10;7.90;;;;;;;6.25;92.25;98256.52;1745811;80;21038;-59
2021/09/21 06:57:38;;;;;;;10.18;9.08;;;;;;;6.26;92.32;98262.94;1754996;80;21121;-61
2021/09/21 07:00:08;;;;;;;12.07;8.63;;;;;;;6.28;92.34;98264.81;1764138;80;21072;-61
2021/09/21 07:02:35;;;;;;;11.57;8.20;;;;;;;6.29;92.29;98260.30;1749725;80;21648;-62
2021/09/21 07:05:03;;;;;;;10.03;8.10;;;;;;;6.31;92.08;98260.84;1755931;79;21589;-63
2021/09/21 07:07:35;;;;;;;10.43;8.58;;;;;;;6.31;91.99;98261.64;1718411;82;21029;-63
2021/09/21 07:10:01;;;;;;;9.50;8.10;;;;;;;6.33;91.96;98270.17;1722190;83;21470;-62
2021/09/21 07:12:28;;;;;;;9.85;8.10;;;;;;;6.34;92.03;98266.95;1737397;80;20896;-62
2021/09/21 07:14:55;;;;;;;10.08;8.53;;;;;;;6.33;92.17;98272.83;1765349;80;21144;-62
2021/09/21 07:17:25;;;;;;;9.45;8.03;;;;;;;6.32;91.92;98272.55;1761239;80;20982;-61
2021/09/21 07:19:51;;;;;;;11.90;8.40;;;;;;;6.33;91.95;98272.83;1757597;81;21019;-62
2021/09/21 07:22:20;;;;;;;10.65;9.30;;;;;;;6.36;91.64;98274.95;1755439;81;20976;-62
2021/09/21 07:24:47;;;;;;;9.60;8.35;;;;;;;6.35;91.56;98282.69;1755582;81;21102;-63
2021/09/21 07:27:13;;;;;;;9.98;8.58;;;;;;;6.39;91.63;98281.62;1755736;81;21133;-64
2021/09/21 07:29:40;;;;;;;12.85;8.03;;;;;;;6.37;91.49;98276.58;1755807;81;20951;-63
2021/09/21 07:32:07;;;;;;;12.30;9.75;;;;;;;6.36;91.29;98274.95;1760495;81;21550;-62
2021/09/21 07:34:35;;;;;;;11.45;9.23;;;;;;;6.35;91.41;98280.02;1768188;80;21155;-62
2021/09/21 07:37:03;;;;;;;11.08;9.43;;;;;;;6.37;91.33;98283.22;1766463;80;21491;-60
2021/09/21 07:39:34;;;;;;;11.53;8.73;;;;;;;6.40;91.35;98285.38;1767354;81;21122;-62
2021/09/21 07:42:07;;;;;;;9.70;8.35;;;;;;;6.42;91.12;98286.45;1769710;81;21062;-61
2021/09/21 07:44:35;;;;;;;8.95;8.05;;;;;;;6.40;91.25;98284.58;1767454;80;21569;-64
2021/09/21 07:47:02;;;;;;;9.95;8.50;;;;;;;6.42;90.91;98289.91;1757705;80;21126;-61
2021/09/21 07:49:29;;;;;;;11.48;9.30;;;;;;;6.42;91.10;98283.78;1755033;81;20976;-61
2021/09/21 07:51:56;;;;;;;12.40;9.05;;;;;;;6.39;91.31;98289.09;1752189;81;21491;-61
2021/09/21 07:54:24;;;;;;;10.25;8.30;;;;;;;6.39;91.59;98287.76;1765299;81;20968;-61
2021/09/21 07:56:55;;;;;;;10.43;8.30;;;;;;;6.40;91.61;98286.72;1762911;80;21510;-60
2021/09/21 07:59:23;;;;;;;11.57;8.70;;;;;;;6.41;91.79;98293.63;1770059;80;20963;-62
2021/09/21 08:01:50;;;;;;;9.78;8.65;;;;;;;6.40;91.82;98289.38;1762880;80;21324;-61
2021/09/21 08:04:18;;;;;;;9.23;8.10;;;;;;;6.43;92.08;98299.48;1755484;80;22402;-61
2021/09/21 08:06:45;;;;;;;8.68;7.83;;;;;;;6.48;92.27;98302.19;1750073;80;20952;-63
2021/09/21 08:09:13;;;;;;;8.08;7.28;;;;;;;6.50;92.06;98297.95;1757724;80;21067;-62
2021/09/21 08:11:44;;;;;;;10.20;8.65;;;;;;;6.49;92.25;98301.14;1764868;80;20941;-62
2021/09/21 08:14:14;;;;;;;9.65;8.45;;;;;;;6.48;92.48;98298.19;1752047;82;21003;-63
2021/09/21 08:16:45;;;;;;;10.20;7.90;;;;;;;6.50;92.45;98302.72;1751755;82;21115;-61
2021/09/21 08:19:14;;;;;;;9.08;8.10;;;;;;;6.51;92.66;98300.34;1747196;80;21068;-63
2021/09/21 08:21:42;;;;;;;10.82;7.87;;;;;;;6.58;93.08;98298.27;1743076;82;21018;-61
2021/09/21 08:24:11;;;;;;;8.80;7.90;;;;;;;6.64;92.56;98293.23;1748816;81;20991;-65
2021/09/21 08:26:38;;;;;;;10.60;7.22;;;;;;;6.65;92.09;98294.84;1740228;80;21574;-64
2021/09/21 08:29:05;;;;;;;9.40;7.10;;;;;;;6.65;91.18;98296.70;1740303;80;21136;-66
2021/09/21 08:31:33;;;;;;;7.92;7.12;;;;;;;6.64;91.54;98297.78;1751644;81;21149;-59
2021/09/21 08:34:01;;;;;;;8.10;7.10;;;;;;;6.67;91.64;98299.38;1765388;81;20869;-62
2021/09/21 08:36:36;;;;;;;7.65;6.95;;;;;;;6.71;91.54;98299.13;1765831;80;21454;-61
2021/09/21 08:39:05;;;;;;;9.98;7.12;;;;;;;6.77;91.29;98298.12;1759099;81;21006;-61
2021/09/21 08:41:32;;;;;;;9.35;7.30;;;;;;;6.82;90.76;98290.16;1756003;81;21501;-61
2021/09/21 08:43:58;;;;;;;9.75;5.80;;;;;;;6.86;90.33;98299.75;1756328;81;21545;-63
2021/09/21 08:46:27;;;;;;;8.68;6.20;;;;;;;6.90;90.10;98300.30;1756214;81;20966;-60
2021/09/21 08:48:55;;;;;;;7.90;6.25;;;;;;;6.93;89.75;98294.98;1752438;79;20979;-60
2021/09/21 08:51:22;;;;;;;7.72;6.70;;;;;;;6.97;89.72;98302.75;1761167;81;21107;-60
2021/09/21 08:53:49;;;;;;;8.30;6.25;;;;;;;6.98;89.10;98294.21;1742864;81;21057;-60
2021/09/21 08:56:16;;;;;;;11.30;6.03;;;;;;;6.97;89.03;98300.09;1761608;80;21072;-60
2021/09/21 08:59:11;;;;;;;7.08;6.20;;;;;;;7.02;89.49;98301.97;1760427;81;21012;-63
2021/09/21 09:01:48;;;;;;;7.85;7.08;;;;;;;7.08;89.45;98306.25;1756222;81;21043;-59
2021/09/21 09:04:19;;;;;;;6.22;5.45;;;;;;;7.11;89.42;98305.73;1748829;80;21045;-60
2021/09/21 09:06:56;;;;;;;5.87;4.70;;;;;;;7.15;89.37;98314.28;1804400;78;21131;-59
2021/09/21 09:09:27;;;;;;;7.10;4.20;;;;;;;7.16;89.37;98317.20;1799347;77;21466;-61
2021/09/21 09:11:57;;;;;;;5.15;3.77;;;;;;;7.10;89.47;98318.77;1763395;80;20919;-60
2021/09/21 09:14:28;;;;;;;3.95;3.50;;;;;;;7.07;89.63;98321.95;1768581;79;21335;-60
2021/09/21 09:16:58;;;;;;;3.50;3.20;;;;;;;7.05;89.97;98319.55;1806987;79;21124;-61
2021/09/21 09:19:34;;;;;;;4.65;3.67;;;;;;;7.04;89.83;98319.82;1744775;82;21059;-61
2021/09/21 09:22:07;;;;;;;5.42;3.50;;;;;;;6.99;90.01;98317.94;1733825;82;21031;-62
2021/09/21 09:25:01;;;;;;;4.53;3.50;;;;;;;7.03;90.15;98316.87;1734412;82;21096;-62
2021/09/21 09:27:39;;;;;;;4.53;4.03;;;;;;;7.16;90.28;98316.42;1752226;81;21047;-60
2021/09/21 09:30:12;;;;;;;5.12;4.08;;;;;;;7.33;90.47;98315.66;1753660;80;21574;-62
2021/09/21 09:32:56;;;;;;;6.08;4.30;;;;;;;7.39;90.21;98315.97;1734173;81;21823;-63
2021/09/21 09:35:34;;;;;;;6.20;4.28;;;;;;;7.42;90.01;98316.76;1768425;80;20983;-63
2021/09/21 09:38:08;;;;;;;4.40;4.00;;;;;;;7.40;89.75;98322.89;1779657;80;21365;-63
2021/09/21 09:40:46;;;;;;;4.62;4.00;;;;;;;7.34;89.49;98325.28;1773191;79;20990;-64
2021/09/21 09:43:16;;;;;;;5.78;4.17;;;;;;;7.30;89.66;98320.98;1747130;80;21463;-62
2021/09/21 09:45:45;;;;;;;4.78;4.30;;;;;;;7.27;89.45;98325.52;1770301;81;21100;-62
2021/09/21 09:48:14;;;;;;;6.22;4.55;;;;;;;7.21;88.75;98333.20;1813020;79;20963;-61
2021/09/21 09:50:43;;;;;;;6.37;4.37;;;;;;;7.18;88.75;98327.09;1766771;80;21146;-62
2021/09/21 09:53:16;;;;;;;4.67;3.70;;;;;;;7.21;88.11;98328.41;1774712;79;20972;-61
2021/09/21 09:55:50;;;;;;;4.85;3.60;;;;;;;7.27;87.47;98335.38;1788123;79;20960;-62
2021/09/21 09:58:17;;;;;;;7.65;3.60;;;;;;;7.34;87.44;98330.08;1811873;79;21101;-61
2021/09/21 10:00:45;;;;;;;6.20;3.95;;;;;;;7.45;86.94;98337.56;1783966;79;21481;-60
2021/09/21 10:03:13;;;;;;;5.17;3.65;;;;;;;7.53;86.64;98327.75;1767379;79;21038;-60
2021/09/21 10:05:40;;;;;;;10.00;4.37;;;;;;;7.58;86.47;98329.88;1735196;81;21072;-60
2021/09/21 10:08:10;;;;;;;5.83;3.90;;;;;;;7.64;86.37;98345.36;1729557;82;21194;-59
2021/09/21 10:10:40;;;;;;;5.85;3.85;;;;;;;7.68;85.80;98338.44;1782229;79;21030;-60
2021/09/21 10:13:14;;;;;;;4.03;3.62;;;;;;;7.75;85.87;98340.31;1776302;79;21114;-59
2021/09/21 10:15:42;;;;;;;;;;;;;;;7.82;85.22;98343.53;1784216;80;21002;-62
2021/09/21 10:18:20;;;;;;;4.58;3.47;;;;;;;7.82;83.95;98336.86;1778093;79;20170;-61
2021/09/21 10:21:03;;;;;;;5.40;3.12;;;;;;;7.80;84.19;98341.66;1785470;80;21028;-60
2021/09/21 10:23:33;;;;;;;4.67;3.62;;;;;;;7.80;83.48;98351.00;1784125;80;21096;-61
2021/09/21 10:26:19;;;;;;;3.70;3.33;;;;;;;7.76;82.97;98351.79;1783062;80;21496;-61
2021/09/21 10:28:47;;;;;;;5.43;4.13;;;;;;;7.70;82.30;98352.30;1784014;80;21422;-62
2021/09/21 10:31:16;;;;;;;4.35;3.67;;;;;;;7.64;82.38;98360.55;1784489;80;21490;-62
2021/09/21 10:33:43;;;;;;;5.78;4.20;;;;;;;7.58;82.46;98363.20;1786660;78;21501;-62
2021/09/21 10:36:32;;;;;;;5.78;3.65;;;;;;;7.52;82.66;98367.45;1783134;78;21107;-61
2021/09/21 10:39:07;;;;;;;4.97;3.95;;;;;;;7.47;82.55;98362.09;1778775;80;21054;-62
2021/09/21 10:41:52;;;;;;;4.92;3.67;;;;;;;7.39;82.55;98364.75;1821459;77;21045;-62
2021/09/21 10:44:20;;;;;;;7.22;3.90;;;;;;;7.38;82.80;98361.80;1801039;78;20941;-61
2021/09/21 10:47:01;;;;;;;4.85;3.95;;;;;;;7.43;82.94;98370.34;1819991;78;21051;-63
2021/09/21 10:49:36;;;;;;;4.83;3.80;;;;;;;7.43;82.88;98367.67;1811081;77;21019;-62
2021/09/21 10:52:10;;;;;;;5.20;3.98;;;;;;;7.42;82.63;98359.40;1818106;78;20946;-63
2021/09/21 10:54:46;;;;;;;4.92;3.50;;;;;;;7.42;83.03;98367.39;1817770;77;20959;-61
2021/09/21 10:57:32;;;;;;;5.05;3.70;;;;;;;7.43;83.01;98371.67;1802818;78;20966;-60
2021/09/21 11:00:03;;;;;;;4.42;3.83;;;;;;;7.42;83.08;98371.39;1808686;77;21564;-62
2021/09/21 11:02:38;;;;;;;7.42;4.30;;;;;;;7.44;83.11;98377.29;1799456;77;20935;-61
2021/09/21 11:05:07;;;;;;;6.55;4.17;;;;;;;7.45;83.08;98374.88;1815471;77;20927;-61
2021/09/21 11:07:37;;;;;;;6.85;4.10;;;;;;;7.46;82.80;98381.30;1807365;77;21058;-63
2021/09/21 11:10:07;;;;;;;4.50;3.90;;;;;;;7.45;82.98;98382.88;1788326;78;21135;-62
2021/09/21 11:12:34;;;;;;;4.55;3.62;;;;;;;7.45;82.42;98389.53;1815952;77;21034;-62
2021/09/21 11:15:09;;;;;;;5.83;3.75;;;;;;;7.39;82.55;98391.40;1817144;78;22396;-62
2021/09/21 11:17:37;;;;;;;;;;;;;;;7.36;82.44;98391.10;1824709;78;20981;-61
2021/09/21 11:20:08;;;;;;;3.83;3.37;;;;;;;7.31;81.82;98393.73;1817955;78;20139;-60
2021/09/21 11:22:36;;;;;;;5.65;3.22;;;;;;;7.23;82.09;98397.69;1818096;77;21054;-60
2021/09/21 11:25:11;;;;;;;3.52;2.90;;;;;;;7.22;82.08;98398.77;1818110;78;20983;-63
2021/09/21 11:27:41;;;;;;;3.33;2.50;;;;;;;7.22;82.15;98400.63;1815267;78;21028;-62
2021/09/21 11:30:13;;;;;;;4.17;3.10;;;;;;;7.26;82.34;98404.36;1828455;78;20965;-62
2021/09/21 11:32:42;;;;;;;5.12;2.98;;;;;;;7.33;81.85;98402.27;1817716;78;20980;-62
2021/09/21 11:35:18;;;;;;;4.22;3.15;;;;;;;7.37;81.80;98407.37;1806854;79;21531;-63
2021/09/21 11:37:50;;;;;;;5.25;3.22;;;;;;;7.39;81.80;98401.25;1796025;79;21058;-60
2021/09/21 11:40:30;;;;;;;4.50;3.47;;;;;;;7.43;81.84;98399.66;1807695;79;20912;-61
2021/09/21 11:42:57;;;;;;;4.03;3.17;;;;;;;7.43;81.75;98400.47;1804849;77;21089;-61
2021/09/21 11:45:25;;;;;;;6.22;3.42;;;;;;;7.41;81.61;98398.60;1804838;78;22042;-61
2021/09/21 11:47:53;;;;;;;4.55;3.65;;;;;;;7.39;81.72;98398.58;1793514;77;20994;-62
2021/09/21 11:50:31;;;;;;;4.40;3.40;;;;;;;7.39;82.13;98405.25;1805285;79;21497;-63
2021/09/21 11:53:00;;;;;;;4.03;3.27;;;;;;;7.40;82.50;98393.51;1802791;77;21675;-62
2021/09/21 11:55:30;;;;;;;8.08;3.70;;;;;;;7.43;82.29;98404.98;1805136;79;21031;-62
2021/09/21 11:57:57;;;;;;;5.35;3.60;;;;;;;7.43;82.62;98402.33;1797450;79;20853;-64
2021/09/21 12:00:34;;;;;;;3.77;3.02;;;;;;;7.43;82.33;98412.46;1797320;79;21458;-63
2021/09/21 12:03:08;;;;;;;5.08;3.22;;;;;;;7.40;82.38;98402.84;1814964;78;21002;-64
2021/09/21 12:05:37;;;;;;;4.28;3.40;;;;;;;7.40;82.77;98401.50;1814382;79;21099;-63
2021/09/21 12:08:06;;;;;;;4.92;3.50;;;;;;;7.41;82.92;98399.93;1821953;78;20927;-64
2021/09/21 12:10:33;;;;;;;4.35;3.75;;;;;;;7.41;83.19;98399.93;1826779;78;20935;-63
2021/09/21 12:13:10;;;;;;;6.37;3.98;;;;;;;7.38;83.08;98403.63;1813020;78;20911;-63
2021/09/21 12:15:41;;;;;;;5.00;3.40;;;;;;;7.32;83.17;98406.82;1825739;78;21006;-64
2021/09/21 12:18:12;;;;;;;4.72;3.83;;;;;;;7.25;83.33;98412.10;1826536;78;20990;-64
2021/09/21 12:20:42;;;;;;;5.20;4.12;;;;;;;7.23;83.62;98414.23;1801444;77;20923;-63
2021/09/21 12:23:10;;;;;;;5.40;3.83;;;;;;;7.21;84.08;98415.80;1814021;78;21344;-62
2021/09/21 12:25:41;;;;;;;4.47;3.58;;;;;;;7.23;84.43;98411.56;1814122;78;21467;-63
2021/09/21 12:28:10;;;;;;;5.05;3.52;;;;;;;7.23;84.65;98431.55;1804344;78;20954;-62
2021/09/21 12:30:41;;;;;;;5.10;3.67;;;;;;;7.19;84.90;98425.11;1801497;77;21178;-65
2021/09/21 12:33:12;;;;;;;6.08;4.00;;;;;;;7.20;85.30;98424.06;1767056;80;21528;-64
2021/09/21 12:35:48;;;;;;;5.65;4.30;;;;;;;7.20;85.63;98420.06;1786920;80;20982;-62
2021/09/21 12:38:24;;;;;;;6.10;4.20;;;;;;;7.18;85.90;98418.19;1772457;80;20887;-63
2021/09/21 12:41:02;;;;;;;6.50;3.92;;;;;;;7.16;86.18;98415.77;1757095;81;20875;-62
2021/09/21 12:43:45;;;;;;;4.60;3.42;;;;;;;7.15;86.33;98413.38;1757412;81;21165;-63
2021/09/21 12:46:11;;;;;;;6.15;4.40;;;;;;;7.17;86.65;98412.58;1768752;80;21002;-62
2021/09/21 12:48:42;;;;;;;4.30;3.72;;;;;;;7.18;87.05;98414.20;1773360;80;20922;-63
2021/09/21 12:51:13;;;;;;;5.12;4.03;;;;;;;7.19;87.30;98417.11;1787888;80;20887;-63
2021/09/21 12:53:41;;;;;;;6.20;4.00;;;;;;;7.16;87.68;98421.65;1785891;80;20891;-63
2021/09/21 12:56:11;;;;;;;3.58;2.90;;;;;;;7.10;87.53;98422.14;1770877;80;20883;-63
2021/09/21 12:58:41;;;;;;;7.58;3.22;;;;;;;7.09;87.59;98425.06;1768867;80;20927;-62
2021/09/21 13:01:11;;;;;;;4.08;3.67;;;;;;;7.10;87.48;98435.45;1766394;80;20916;-64
2021/09/21 13:03:38;;;;;;;4.87;3.50;;;;;;;7.05;87.05;98437.27;1773947;80;20883;-62
2021/09/21 13:06:08;;;;;;;5.85;3.50;;;;;;;6.99;87.23;98432.98;1755760;80;20945;-63
2021/09/21 13:08:38;;;;;;;6.30;3.47;;;;;;;6.92;87.59;98427.08;1758793;81;21689;-63
2021/09/21 13:11:05;;;;;;;6.87;3.67;;;;;;;6.82;87.95;98432.61;1760193;81;20891;-61
2021/09/21 13:13:33;;;;;;;5.15;3.22;;;;;;;6.78;88.48;98432.82;1743907;82;21518;-62
2021/09/21 13:16:03;;;;;;;5.12;4.33;;;;;;;6.73;88.56;98430.15;1757779;81;20881;-62
2021/09/21 13:18:32;;;;;;;6.65;3.87;;;;;;;6.70;88.98;98442.62;1743840;82;20848;-63
2021/09/21 13:21:00;;;;;;;4.67;4.15;;;;;;;6.68;89.09;98442.08;1757539;81;20982;-63
2021/09/21 13:23:29;;;;;;;6.70;4.40;;;;;;;6.65;89.40;98438.59;1743803;82;20879;-68
2021/09/21 13:25:56;;;;;;;9.78;4.15;;;;;;;6.64;89.72;98431.64;1756212;81;21061;-61
2021/09/21 13:28:26;;;;;;;6.80;4.55;;;;;;;6.67;89.99;98442.31;1743438;82;21442;-66
2021/09/21 13:30:53;;;;;;;7.47;4.83;;;;;;;6.68;90.08;98440.75;1758129;81;21117;-65
2021/09/21 13:33:20;;;;;;;6.72;4.90;;;;;;;6.69;90.34;98438.34;1757223;81;21167;-63
2021/09/21 13:35:49;;;;;;;6.42;5.08;;;;;;;6.73;90.65;98442.12;1741574;81;21379;-63
2021/09/21 13:38:17;;;;;;;7.22;4.78;;;;;;;6.76;90.71;98442.92;1735006;82;21437;-61
2021/09/21 13:40:45;;;;;;;7.85;4.78;;;;;;;6.78;90.51;98448.80;1735487;82;21004;-64
2021/09/21 13:43:12;;;;;;;4.87;4.37;;;;;;;6.76;90.24;98448.25;1735278;81;21103;-62
2021/09/21 13:45:38;;;;;;;5.58;4.80;;;;;;;6.80;90.23;98457.88;1735143;81;21100;-63
2021/09/21 13:48:05;;;;;;;6.35;5.05;;;;;;;6.83;90.03;98449.36;1733992;82;21405;-62
2021/09/21 13:50:32;;;;;;;6.83;5.10;;;;;;;6.89;90.05;98445.70;1734182;82;21015;-61
2021/09/21 14:57:35;;;;;;;8.13;5.58;;;;;;;6.38;88.69;98480.92;1871528;76;22384;-64
2021/09/21 15:00:07;;;;;;;8.70;4.87;;;;;;;6.31;88.69;98486.45;1827808;78;20922;-64
2021/09/21 15:02:33;;;;;;;6.97;5.22;;;;;;;6.35;88.75;98490.73;1827354;78;21708;-65
2021/09/21 15:05:00;;;;;;;9.05;4.72;;;;;;;6.37;89.03;98488.09;1827820;78;20923;-65
2021/09/21 15:07:28;;;;;;;5.83;4.40;;;;;;;6.43;88.83;98486.30;1827862;78;21581;-67
2021/09/21 15:09:55;;;;;;;5.20;3.90;;;;;;;6.47;88.62;98486.88;1827868;78;21434;-65
2021/09/21 15:12:25;;;;;;;5.72;3.95;;;;;;;6.52;88.64;98484.27;1827774;78;20876;-65
2021/09/21 15:14:52;;;;;;;6.37;3.95;;;;;;;6.54;88.64;98484.81;1827854;78;21116;-68
2021/09/21 15:17:21;;;;;;;6.60;4.35;;;;;;;6.60;88.65;98485.12;1827657;78;20936;-64
2021/09/21 15:19:49;;;;;;;5.47;4.12;;;;;;;6.65;88.43;98478.52;1827727;78;20950;-61
2021/09/21 15:22:17;;;;;;;4.30;3.50;;;;;;;6.68;88.09;98483.34;1827784;78;20955;-64
2021/09/21 15:24:45;;;;;;;4.50;3.60;;;;;;;6.70;87.92;98490.55;1827866;78;20860;-62
2021/09/21 15:27:13;;;;;;;4.03;3.12;;;;;;;6.71;87.49;98491.35;1827803;78;20903;-61
2021/09/21 15:29:40;;;;;;;5.22;4.17;;;;;;;6.70;87.32;98491.06;1827985;78;21505;-63
2021/09/21 15:32:07;;;;;;;5.35;3.67;;;;;;;6.71;87.40;98495.34;1827790;78;20955;-60
2021/09/21 15:34:34;;;;;;;5.67;3.50;;;;;;;6.73;87.37;98498.03;1828011;78;20848;-63
2021/09/21 15:37:03;;;;;;;4.72;3.60;;;;;;;6.74;86.99;98495.62;1827685;78;20844;-61
2021/09/21 15:39:32;;;;;;;5.08;3.45;;;;;;;6.76;86.96;98495.36;1827812;78;20876;-65
2021/09/21 15:41:58;;;;;;;4.08;3.25;;;;;;;6.79;86.62;98492.20;1827769;78;21461;-65
2021/09/21 15:44:28;;;;;;;5.10;3.40;;;;;;;6.81;86.82;98493.56;1827868;78;20899;-61
2021/09/21 15:46:53;;;;;;;4.55;3.10;;;;;;;6.82;86.65;98497.84;1827665;78;20918;-62
2021/09/21 15:49:20;;;;;;;5.40;2.87;;;;;;;6.83;86.52;98496.77;1827841;78;21427;-63
2021/09/21 15:51:49;;;;;;;5.15;3.42;;;;;;;6.80;86.20;98502.62;1827770;78;20892;-62
2021/09/21 15:54:19;;;;;;;4.40;3.25;;;;;;;6.79;86.08;98501.52;1827646;78;20860;-63
2021/09/21 15:56:47;;;;;;;4.92;3.60;;;;;;;6.79;86.20;98504.19;1824762;77;20994;-64
2021/09/21 15:59:13;;;;;;;5.17;3.30;;;;;;;6.80;86.26;98497.81;1822562;78;21426;-63
2021/09/21 16:01:41;;;;;;;4.17;3.42;;;;;;;6.82;86.12;98501.83;1822607;78;20899;-63
2021/09/21 16:04:08;;;;;;;4.30;3.27;;;;;;;6.83;86.05;98502.09;1822579;78;21092;-64
2021/09/21 16:06:34;;;;;;;5.05;3.55;;;;;;;6.85;86.19;98493.31;1822545;77;20861;-64
2021/09/21 16:09:01;;;;;;;4.37;3.27;;;;;;;6.89;86.20;98492.30;1822075;78;20980;-64
2021/09/21 16:11:28;;;;;;;5.37;3.25;;;;;;;6.93;86.00;98493.91;1821863;78;20924;-63
2021/09/21 16:13:56;;;;;;;4.65;3.12;;;;;;;6.92;85.80;98500.31;1821991;78;20888;-62
2021/09/21 16:16:24;;;;;;;3.80;2.87;;;;;;;6.87;85.63;98497.08;1822064;77;21805;-62
2021/09/21 16:18:50;;;;;;;3.40;2.80;;;;;;;6.84;85.72;98498.39;1821945;77;20912;-63
2021/09/21 16:21:18;;;;;;;4.65;3.02;;;;;;;6.86;85.68;98505.59;1821969;78;20955;-63
